createdAt,value
2022-08-22T00:02:54.565Z,11.70
2022-08-22T00:03:10.646Z,4.43
2022-08-22T00:07:04.871Z,8.65
2022-08-22T00:17:27.359Z,6.95
2022-08-22T00:27:53.677Z,7.00
2022-08-22T00:38:22.155Z,8.15
2022-08-22T00:48:48.881Z,6.75
2022-08-22T00:59:29.383Z,1.95
2022-08-22T01:10:09.761Z,5.30
2022-08-22T01:20:37.748Z,6.10
2022-08-22T01:31:00.628Z,2.60
2022-08-22T01:41:33.736Z,2.50
2022-08-22T01:52:12.197Z,2.10
2022-08-22T02:02:42.244Z,1.98
2022-08-22T02:12:55.812Z,1.90
2022-08-22T02:23:19.449Z,3.38
2022-08-22T02:33:55.218Z,3.78
2022-08-22T02:44:02.914Z,6.22
2022-08-22T02:54:25.892Z,3.30
2022-08-22T03:04:30.344Z,3.53
2022-08-22T03:14:41.083Z,3.25
2022-08-22T03:25:07.411Z,3.47
2022-08-22T03:35:11.686Z,2.28
2022-08-22T03:45:38.523Z,2.90
2022-08-22T03:56:04.019Z,2.13
2022-08-22T04:06:37.141Z,11.40
2022-08-22T04:17:17.556Z,3.63
2022-08-22T04:27:31.414Z,2.37
2022-08-22T04:37:53.699Z,5.13
2022-08-22T04:48:18.884Z,6.05
2022-08-22T04:58:30.088Z,5.07
2022-08-22T05:08:36.062Z,4.07
2022-08-22T05:18:48.787Z,9.43
2022-08-22T05:39:03.515Z,10.18
2022-08-22T05:49:14.151Z,23.38
2022-08-22T05:59:19.033Z,9.63
2022-08-22T06:10:00.212Z,11.57
2022-08-22T06:20:06.821Z,12.90
2022-08-22T06:30:12.614Z,8.75
2022-08-22T06:40:17.233Z,12.13
2022-08-22T06:50:34.910Z,8.35
2022-08-22T07:00:38.446Z,12.90
2022-08-22T07:10:43.305Z,11.50
2022-08-22T07:20:50.938Z,8.48
2022-08-22T07:31:05.510Z,10.85
2022-08-22T07:41:22.050Z,18.75
2022-08-22T07:51:50.738Z,10.95
2022-08-22T08:01:57.357Z,14.27
2022-08-22T08:12:02.032Z,9.95
2022-08-22T08:22:04.304Z,13.88
2022-08-22T08:32:10.076Z,9.07
2022-08-22T08:42:49.681Z,14.43
2022-08-22T08:52:57.278Z,26.53
2022-08-22T09:03:30.935Z,26.33
2022-08-22T09:14:02.661Z,35.63
2022-08-22T09:24:23.569Z,42.20
2022-08-22T09:35:04.108Z,41.13
2022-08-22T09:45:07.323Z,52.05
2022-08-22T09:55:39.610Z,42.13
2022-08-22T10:05:44.951Z,52.72
2022-08-22T10:16:11.903Z,43.10
2022-08-22T10:26:40.264Z,44.47
2022-08-22T10:37:02.242Z,38.93
2022-08-22T10:47:18.131Z,41.22
2022-08-22T10:57:44.020Z,29.80
2022-08-22T11:08:14.067Z,33.95
2022-08-22T11:18:21.955Z,24.55
2022-08-22T11:28:24.683Z,33.27
2022-08-22T11:38:45.075Z,31.70
2022-08-22T11:48:58.730Z,69.78
2022-08-22T11:59:16.175Z,41.95
2022-08-22T12:09:25.331Z,47.60
2022-08-22T12:30:38.701Z,42.92
2022-08-22T12:41:14.721Z,36.42
2022-08-22T12:51:41.890Z,40.17
2022-08-22T13:01:47.469Z,36.47
2022-08-22T13:11:52.822Z,33.30
2022-08-22T13:22:12.099Z,35.70
2022-08-22T13:42:30.451Z,37.05
2022-08-22T13:52:39.484Z,32.35
2022-08-22T14:03:12.596Z,42.30
2022-08-22T14:13:59.254Z,38.35
2022-08-22T14:24:26.877Z,57.42
2022-08-22T14:34:32.037Z,41.00
2022-08-22T14:44:49.813Z,49.38
2022-08-22T14:55:14.155Z,51.75
2022-08-22T15:05:22.539Z,45.30
2022-08-22T15:15:53.362Z,34.25
2022-08-22T15:26:03.660Z,46.08
2022-08-22T15:36:10.972Z,46.83
2022-08-22T15:46:22.067Z,35.33
2022-08-22T16:06:59.924Z,49.47
2022-08-22T16:17:25.218Z,60.75
2022-08-22T16:27:27.978Z,66.13
2022-08-22T16:37:43.466Z,28.48
2022-08-22T16:47:54.516Z,74.88
2022-08-22T16:58:15.685Z,47.63
2022-08-22T17:08:26.691Z,36.80
2022-08-22T17:18:56.603Z,44.38
2022-08-22T17:29:15.979Z,39.58
2022-08-22T17:39:36.563Z,39.67
2022-08-22T17:49:41.261Z,32.30
2022-08-22T17:59:46.170Z,39.03
2022-08-22T18:10:17.009Z,34.40
2022-08-22T18:20:31.541Z,48.03
2022-08-22T18:30:56.630Z,38.42
2022-08-22T18:41:36.775Z,55.35
2022-08-22T18:51:39.019Z,47.78
2022-08-22T19:01:47.019Z,44.13
2022-08-22T19:12:07.576Z,44.53
2022-08-22T19:22:36.456Z,50.00
2022-08-22T19:32:47.024Z,51.27
2022-08-22T19:42:49.050Z,61.45
2022-08-22T19:52:56.986Z,116.32
2022-08-22T20:03:02.157Z,54.80
2022-08-22T20:13:09.312Z,67.82
2022-08-22T20:23:24.655Z,95.70
2022-08-22T20:33:35.621Z,76.40
2022-08-22T20:44:03.461Z,73.93
2022-08-22T20:54:17.368Z,63.70
2022-08-22T21:04:21.365Z,35.65
2022-08-22T21:14:26.921Z,4.80
2022-08-22T21:24:29.181Z,6.10
2022-08-22T21:34:50.981Z,2.65
2022-08-22T21:44:59.420Z,3.35
2022-08-22T21:55:52.909Z,4.20
2022-08-22T22:06:00.074Z,3.47
2022-08-22T22:16:05.588Z,3.58
2022-08-22T22:26:07.605Z,5.18
2022-08-22T22:36:14.319Z,7.38
2022-08-22T22:46:16.338Z,8.60
2022-08-22T22:56:21.765Z,5.85
2022-08-22T23:06:26.476Z,5.50
2022-08-22T23:16:29.459Z,7.88
2022-08-22T23:26:33.182Z,4.32
2022-08-22T23:36:35.882Z,3.88
2022-08-22T23:46:38.033Z,4.90
2022-08-22T23:56:43.524Z,6.72
